Time;durP1;ratioP1;P1;durP2;ratioP2;P2;SDS_P1;SDS_P2;PMS_P1;PMS_P2;Temp;Humidity;BMP_temperature;BMP_pressure;BME280_temperature;BME280_humidity;BME280_pressure;Samples;Min_cycle;Max_cycle;Signal;HPM_P1;HPM_P2
2023/12/12 00:00:53;;;;;;;5.95;1.10;;;;;;;;;;5263732;28;20020;-84
2023/12/12 00:03:24;;;;;;;7.47;1.00;;;;;;;;;;5262544;28;20111;-84
2023/12/12 00:05:55;;;;;;;7.55;1.55;;;;;;;;;;5263627;28;20013;-81
2023/12/12 00:08:26;;;;;;;9.50;1.65;;;;;;;;;;5262898;28;20032;-81
2023/12/12 00:10:57;;;;;;;10.27;1.70;;;;;;;;;;5262253;28;20029;-81
2023/12/12 00:13:29;;;;;;;9.02;1.67;;;;;;;;;;5263066;28;20023;-81
2023/12/12 00:16:00;;;;;;;9.02;1.52;;;;;;;;;;5262050;28;20021;-83
2023/12/12 00:18:32;;;;;;;9.43;1.45;;;;;;;;;;5263090;28;20479;-81
2023/12/12 00:21:03;;;;;;;7.68;1.85;;;;;;;;;;5262735;28;20019;-80
2023/12/12 00:23:35;;;;;;;7.15;1.02;;;;;;;;;;5261686;28;20399;-82
2023/12/12 00:26:07;;;;;;;8.82;1.75;;;;;;;;;;5263048;28;20078;-83
2023/12/12 00:28:39;;;;;;;8.25;1.55;;;;;;;;;;5262945;28;20045;-81
2023/12/12 00:31:11;;;;;;;9.18;1.50;;;;;;;;;;5261910;28;20064;-81
2023/12/12 00:33:42;;;;;;;12.02;1.80;;;;;;;;;;5262781;28;20418;-82
2023/12/12 00:36:13;;;;;;;9.72;1.76;;;;;;;;;;5262518;28;20013;-81
2023/12/12 00:38:44;;;;;;;8.73;1.85;;;;;;;;;;5261568;28;20025;-81
2023/12/12 00:41:15;;;;;;;8.77;1.45;;;;;;;;;;5262454;28;20461;-81
2023/12/12 00:43:46;;;;;;;10.50;1.67;;;;;;;;;;5262556;28;20092;-81
2023/12/12 00:46:18;;;;;;;12.48;1.73;;;;;;;;;;5261481;28;20024;-81
2023/12/12 00:48:49;;;;;;;9.75;1.60;;;;;;;;;;5262527;28;20017;-83
2023/12/12 00:51:20;;;;;;;9.90;1.42;;;;;;;;;;5261660;28;20025;-83
2023/12/12 00:53:51;;;;;;;9.63;1.80;;;;;;;;;;5262441;28;20028;-84
2023/12/12 00:56:22;;;;;;;9.02;1.10;;;;;;;;;;5261960;28;20009;-84
2023/12/12 00:58:53;;;;;;;11.27;1.63;;;;;;;;;;5261605;28;20029;-81
2023/12/12 01:01:25;;;;;;;7.57;1.77;;;;;;;;;;5261467;28;20053;-81
2023/12/12 01:03:56;;;;;;;8.23;1.52;;;;;;;;;;5261809;28;20027;-80
2023/12/12 01:06:27;;;;;;;9.02;1.17;;;;;;;;;;5261155;28;20473;-83
2023/12/12 01:08:58;;;;;;;11.32;1.45;;;;;;;;;;5261803;28;20021;-81
2023/12/12 01:11:29;;;;;;;7.45;1.40;;;;;;;;;;5261725;28;20353;-81
2023/12/12 01:14:00;;;;;;;11.60;1.67;;;;;;;;;;5261256;28;20056;-81
2023/12/12 01:16:32;;;;;;;6.95;0.90;;;;;;;;;;5261994;28;20075;-81
2023/12/12 01:19:03;;;;;;;7.18;0.85;;;;;;;;;;5261703;28;20021;-81
2023/12/12 01:21:34;;;;;;;6.60;1.00;;;;;;;;;;5261076;28;20534;-81
2023/12/12 01:24:06;;;;;;;8.60;1.27;;;;;;;;;;5261324;28;20049;-80
2023/12/12 01:26:37;;;;;;;8.30;1.34;;;;;;;;;;5260790;28;20443;-83
2023/12/12 01:29:09;;;;;;;9.63;1.58;;;;;;;;;;5261718;28;20380;-81
2023/12/12 01:31:40;;;;;;;4.93;1.00;;;;;;;;;;5261664;28;20033;-83
2023/12/12 01:34:11;;;;;;;6.68;1.35;;;;;;;;;;5260517;28;20028;-83
2023/12/12 01:36:42;;;;;;;13.07;1.70;;;;;;;;;;5261699;28;20028;-81
2023/12/12 01:39:14;;;;;;;8.27;1.00;;;;;;;;;;5261441;28;20147;-81
2023/12/12 01:41:46;;;;;;;6.13;1.00;;;;;;;;;;5260627;28;20021;-81
2023/12/12 01:44:17;;;;;;;16.08;1.52;;;;;;;;;;5261266;28;20052;-81
2023/12/12 01:46:50;;;;;;;12.77;2.97;;;;;;;;;;5261467;28;20013;-81
2023/12/12 01:49:21;;;;;;;10.05;1.58;;;;;;;;;;5260328;28;20468;-81
2023/12/12 01:51:52;;;;;;;10.68;1.33;;;;;;;;;;5261218;28;20033;-81
2023/12/12 01:54:24;;;;;;;13.27;1.80;;;;;;;;;;5260115;28;20032;-81
2023/12/12 01:56:56;;;;;;;14.05;2.00;;;;;;;;;;5261387;28;20025;-81
2023/12/12 01:59:27;;;;;;;9.82;1.83;;;;;;;;;;5261028;28;20028;-81
2023/12/12 02:01:58;;;;;;;13.93;2.00;;;;;;;;;;5260409;28;20028;-83
2023/12/12 02:04:29;;;;;;;10.20;1.50;;;;;;;;;;5261159;28;20016;-83
2023/12/12 02:07:03;;;;;;;11.25;1.50;;;;;;;;;;5261078;28;20388;-84
2023/12/12 02:09:35;;;;;;;11.13;1.65;;;;;;;;;;5260173;28;20048;-84
2023/12/12 02:12:06;;;;;;;10.40;1.63;;;;;;;;;;5261014;28;20114;-84
2023/12/12 02:14:38;;;;;;;16.10;2.30;;;;;;;;;;5260343;28;20025;-84
2023/12/12 02:17:10;;;;;;;10.80;1.50;;;;;;;;;;5260045;28;20036;-81
2023/12/12 02:19:41;;;;;;;12.32;1.90;;;;;;;;;;5260987;28;20464;-81
2023/12/12 02:22:12;;;;;;;12.48;1.48;;;;;;;;;;5260839;28;20565;-81
2023/12/12 02:24:43;;;;;;;17.02;2.03;;;;;;;;;;5260038;28;20060;-81
2023/12/12 02:27:14;;;;;;;12.23;1.98;;;;;;;;;;5260744;28;20040;-81
2023/12/12 02:29:45;;;;;;;16.42;1.77;;;;;;;;;;5260172;28;20426;-81
2023/12/12 02:32:17;;;;;;;12.05;2.60;;;;;;;;;;5260794;28;20144;-81
2023/12/12 02:34:48;;;;;;;15.88;2.72;;;;;;;;;;5260677;28;20028;-81
2023/12/12 02:37:20;;;;;;;10.30;2.03;;;;;;;;;;5260064;28;20377;-81
2023/12/12 02:39:51;;;;;;;12.32;1.88;;;;;;;;;;5260632;28;20021;-81
2023/12/12 02:42:22;;;;;;;9.25;1.23;;;;;;;;;;5260369;28;20486;-81
2023/12/12 02:44:55;;;;;;;11.05;1.80;;;;;;;;;;5260207;28;20507;-81
2023/12/12 02:47:26;;;;;;;12.68;2.22;;;;;;;;;;5260297;28;20025;-80
2023/12/12 02:49:57;;;;;;;10.75;1.55;;;;;;;;;;5260594;28;20055;-81
2023/12/12 02:52:28;;;;;;;13.95;2.38;;;;;;;;;;5259713;28;20033;-81
2023/12/12 02:54:59;;;;;;;13.30;2.17;;;;;;;;;;5260580;28;20415;-81
2023/12/12 02:57:31;;;;;;;18.95;2.63;;;;;;;;;;5260487;28;20075;-81
2023/12/12 03:00:03;;;;;;;13.45;1.92;;;;;;;;;;5259994;28;20017;-81
2023/12/12 03:02:35;;;;;;;16.15;1.83;;;;;;;;;;5260605;28;20017;-81
2023/12/12 03:05:06;;;;;;;12.85;2.33;;;;;;;;;;5259934;28;20017;-81
2023/12/12 03:07:37;;;;;;;14.90;1.60;;;;;;;;;;5260305;28;20067;-81
2023/12/12 03:10:08;;;;;;;17.77;1.80;;;;;;;;;;5260096;28;20044;-81
2023/12/12 03:12:39;;;;;;;11.80;1.70;;;;;;;;;;5259376;28;20041;-81
2023/12/12 03:15:11;;;;;;;13.46;1.78;;;;;;;;;;5260206;28;20029;-84
2023/12/12 03:17:42;;;;;;;12.77;2.58;;;;;;;;;;5260181;28;20017;-82
2023/12/12 03:20:13;;;;;;;10.90;1.58;;;;;;;;;;5259304;28;20015;-82
2023/12/12 03:22:44;;;;;;;9.68;1.30;;;;;;;;;;5259953;28;20482;-82
2023/12/12 03:25:16;;;;;;;15.40;1.70;;;;;;;;;;5260117;28;20053;-82
2023/12/12 03:27:47;;;;;;;15.07;2.25;;;;;;;;;;5262159;28;20036;-82
2023/12/12 03:30:18;;;;;;;15.77;2.08;;;;;;;;;;5264093;28;20013;-82
2023/12/12 03:32:49;;;;;;;15.60;1.98;;;;;;;;;;5263020;28;20081;-82
2023/12/12 03:35:20;;;;;;;12.57;1.65;;;;;;;;;;5263695;28;20021;-82
2023/12/12 03:37:52;;;;;;;22.08;3.15;;;;;;;;;;5264040;28;20025;-82
2023/12/12 03:40:23;;;;;;;22.58;2.40;;;;;;;;;;5262535;28;20159;-82
2023/12/12 03:42:54;;;;;;;13.50;3.00;;;;;;;;;;5263795;28;20496;-82
2023/12/12 03:45:25;;;;;;;12.20;2.20;;;;;;;;;;5263258;28;20357;-82
2023/12/12 03:47:57;;;;;;;13.10;1.70;;;;;;;;;;5263227;28;20021;-82
2023/12/12 03:50:28;;;;;;;13.43;1.92;;;;;;;;;;5263528;28;20032;-81
2023/12/12 03:52:59;;;;;;;19.35;1.83;;;;;;;;;;5263559;28;20039;-82
2023/12/12 03:55:30;;;;;;;14.15;1.92;;;;;;;;;;5262438;28;20028;-82
2023/12/12 03:58:01;;;;;;;12.90;2.25;;;;;;;;;;5263085;28;20475;-82
2023/12/12 04:00:32;;;;;;;14.60;1.52;;;;;;;;;;5263536;28;20439;-82
2023/12/12 04:03:04;;;;;;;16.95;2.15;;;;;;;;;;5262619;28;20086;-82
2023/12/12 04:05:35;;;;;;;13.40;1.75;;;;;;;;;;5263264;28;20021;-82
2023/12/12 04:08:07;;;;;;;13.68;1.95;;;;;;;;;;5262447;28;20104;-82
2023/12/12 04:10:38;;;;;;;18.10;2.25;;;;;;;;;;5262819;28;20013;-82
2023/12/12 04:13:09;;;;;;;14.15;1.88;;;;;;;;;;5263152;28;20035;-82
2023/12/12 04:15:41;;;;;;;13.75;2.13;;;;;;;;;;5262393;28;20029;-82
2023/12/12 04:18:12;;;;;;;16.65;2.35;;;;;;;;;;5262953;28;20028;-82
2023/12/12 04:20:43;;;;;;;17.98;2.56;;;;;;;;;;5262799;28;20021;-82
2023/12/12 04:23:14;;;;;;;11.38;2.08;;;;;;;;;;5262128;28;20116;-81
2023/12/12 04:25:45;;;;;;;15.55;2.15;;;;;;;;;;5262582;28;20488;-82
2023/12/12 04:28:16;;;;;;;13.05;3.20;;;;;;;;;;5262904;28;20126;-82
2023/12/12 04:30:48;;;;;;;12.88;2.40;;;;;;;;;;5261829;28;20041;-82
2023/12/12 04:33:19;;;;;;;12.90;2.40;;;;;;;;;;5262564;28;20078;-82
2023/12/12 04:35:50;;;;;;;17.90;3.08;;;;;;;;;;5262635;28;20063;-82
2023/12/12 04:38:21;;;;;;;12.20;2.13;;;;;;;;;;5261204;28;20468;-82
2023/12/12 04:40:53;;;;;;;14.90;3.10;;;;;;;;;;5262805;28;20021;-81
2023/12/12 04:43:24;;;;;;;12.43;2.45;;;;;;;;;;5261325;28;20078;-82
2023/12/12 04:45:56;;;;;;;14.77;2.47;;;;;;;;;;5262641;28;20036;-82
2023/12/12 04:48:27;;;;;;;20.05;3.50;;;;;;;;;;5262203;28;20062;-82
2023/12/12 04:51:00;;;;;;;16.92;2.70;;;;;;;;;;5261252;28;20468;-82
2023/12/12 04:53:31;;;;;;;18.30;2.35;;;;;;;;;;5262376;28;20017;-82
2023/12/12 04:56:02;;;;;;;20.10;3.88;;;;;;;;;;5262305;28;20024;-82
2023/12/12 04:58:33;;;;;;;17.10;2.80;;;;;;;;;;5261339;28;20025;-82
2023/12/12 05:01:05;;;;;;;20.15;2.90;;;;;;;;;;5262121;28;20035;-82
2023/12/12 05:03:36;;;;;;;14.88;2.55;;;;;;;;;;5262297;28;20468;-82
2023/12/12 05:06:08;;;;;;;17.02;3.78;;;;;;;;;;5261248;28;20051;-82
2023/12/12 05:08:41;;;;;;;17.27;3.08;;;;;;;;;;5261918;28;20091;-82
2023/12/12 05:11:15;;;;;;;20.17;3.13;;;;;;;;;;5260902;28;20056;-82
2023/12/12 05:13:46;;;;;;;13.15;2.72;;;;;;;;;;5262090;28;20013;-82
2023/12/12 05:16:18;;;;;;;18.77;2.30;;;;;;;;;;5262137;28;20021;-82
2023/12/12 05:18:50;;;;;;;11.95;2.65;;;;;;;;;;5263973;28;20017;-82
2023/12/12 05:21:21;;;;;;;14.90;2.88;;;;;;;;;;5262029;28;20021;-82
2023/12/12 05:23:53;;;;;;;15.98;3.25;;;;;;;;;;5261930;28;20055;-81
2023/12/12 05:26:24;;;;;;;14.90;3.33;;;;;;;;;;5260659;28;20040;-81
2023/12/12 05:28:55;;;;;;;16.75;3.78;;;;;;;;;;5261699;28;20021;-81
2023/12/12 05:31:27;;;;;;;19.33;3.53;;;;;;;;;;5261037;28;20028;-81
2023/12/12 05:33:58;;;;;;;15.48;3.03;;;;;;;;;;5260559;28;20032;-81
2023/12/12 05:36:29;;;;;;;17.98;3.00;;;;;;;;;;5261720;28;20029;-81
2023/12/12 05:39:01;;;;;;;17.48;3.13;;;;;;;;;;5261435;28;20095;-81
2023/12/12 05:41:32;;;;;;;18.45;3.00;;;;;;;;;;5260490;28;20017;-82
2023/12/12 05:44:03;;;;;;;14.00;2.83;;;;;;;;;;5261327;28;20023;-81
2023/12/12 05:46:35;;;;;;;18.23;3.08;;;;;;;;;;5260453;28;20120;-82
2023/12/12 05:49:09;;;;;;;17.13;4.03;;;;;;;;;;5260611;28;20033;-82
2023/12/12 05:51:40;;;;;;;16.67;2.70;;;;;;;;;;5261018;28;20044;-82
2023/12/12 05:54:11;;;;;;;20.33;3.67;;;;;;;;;;5260587;28;20158;-82
2023/12/12 05:56:44;;;;;;;20.13;2.95;;;;;;;;;;5260824;28;20021;-82
2023/12/12 05:59:16;;;;;;;14.10;2.55;;;;;;;;;;5261220;28;20472;-82
2023/12/12 06:01:47;;;;;;;16.80;3.80;;;;;;;;;;5260499;28;20138;-82
2023/12/12 06:04:18;;;;;;;18.70;3.10;;;;;;;;;;5260975;28;20025;-81
2023/12/12 06:06:49;;;;;;;14.68;2.80;;;;;;;;;;5260999;28;20021;-81
2023/12/12 06:09:20;;;;;;;10.27;2.08;;;;;;;;;;5260215;28;20491;-82
2023/12/12 06:11:52;;;;;;;12.52;2.40;;;;;;;;;;5261299;28;20033;-82
2023/12/12 06:14:23;;;;;;;19.38;3.50;;;;;;;;;;5260677;28;20375;-81
2023/12/12 06:16:54;;;;;;;14.38;2.35;;;;;;;;;;5260359;28;20021;-82
2023/12/12 06:19:25;;;;;;;16.85;2.67;;;;;;;;;;5260533;28;20487;-82
2023/12/12 06:21:56;;;;;;;17.58;3.35;;;;;;;;;;5260132;28;20032;-81
2023/12/12 06:24:28;;;;;;;14.48;2.40;;;;;;;;;;5260747;28;20488;-83
2023/12/12 06:26:59;;;;;;;16.38;2.85;;;;;;;;;;5260623;28;20029;-82
2023/12/12 06:29:30;;;;;;;12.88;1.70;;;;;;;;;;5259796;28;20017;-83
2023/12/12 06:32:01;;;;;;;14.73;2.55;;;;;;;;;;5260871;28;20017;-82
2023/12/12 06:34:33;;;;;;;16.50;3.00;;;;;;;;;;5260773;28;20023;-82
2023/12/12 06:37:05;;;;;;;13.35;2.25;;;;;;;;;;5260017;28;20028;-81
2023/12/12 06:39:36;;;;;;;16.92;2.67;;;;;;;;;;5260735;28;20030;-85
2023/12/12 06:42:07;;;;;;;15.00;2.85;;;;;;;;;;5260521;28;20025;-86
2023/12/12 06:44:39;;;;;;;34.00;5.53;;;;;;;;;;5259394;28;20017;-85
2023/12/12 06:47:10;;;;;;;27.67;4.18;;;;;;;;;;5260777;28;20013;-85
2023/12/12 06:49:41;;;;;;;19.05;3.35;;;;;;;;;;5259859;28;20091;-85
2023/12/12 06:52:12;;;;;;;15.40;3.15;;;;;;;;;;5260202;28;20025;-85
2023/12/12 06:54:43;;;;;;;17.27;3.08;;;;;;;;;;5260504;28;20031;-85
2023/12/12 06:57:16;;;;;;;16.10;2.67;;;;;;;;;;5259549;28;20485;-85
2023/12/12 06:59:47;;;;;;;10.65;2.15;;;;;;;;;;5260448;28;20325;-86
2023/12/12 07:02:18;;;;;;;16.40;2.65;;;;;;;;;;5264249;28;20025;-85
2023/12/12 07:04:49;;;;;;;19.35;3.85;;;;;;;;;;5263740;28;20024;-85
2023/12/12 07:07:20;;;;;;;16.35;2.63;;;;;;;;;;5264318;28;20449;-85
2023/12/12 07:09:51;;;;;;;13.60;2.42;;;;;;;;;;5264387;28;20021;-85
2023/12/12 07:12:24;;;;;;;12.90;2.35;;;;;;;;;;5262923;28;20086;-85
2023/12/12 07:14:55;;;;;;;15.60;2.17;;;;;;;;;;5264663;28;20423;-85
2023/12/12 07:17:27;;;;;;;17.35;3.28;;;;;;;;;;5263918;28;20017;-85
2023/12/12 07:19:58;;;;;;;15.77;2.70;;;;;;;;;;5263479;28;20021;-85
2023/12/12 07:22:30;;;;;;;15.43;2.50;;;;;;;;;;5264625;28;20024;-85
2023/12/12 07:25:03;;;;;;;17.90;3.60;;;;;;;;;;5263214;28;20044;-85
2023/12/12 07:27:34;;;;;;;21.50;2.97;;;;;;;;;;5264165;28;20021;-86
2023/12/12 07:30:05;;;;;;;13.30;2.13;;;;;;;;;;5263970;28;20028;-85
2023/12/12 07:32:37;;;;;;;14.88;1.80;;;;;;;;;;5263056;28;20037;-85
2023/12/12 07:35:08;;;;;;;12.98;2.08;;;;;;;;;;5264111;28;20020;-86
2023/12/12 07:37:39;;;;;;;13.98;1.75;;;;;;;;;;5264089;28;20137;-86
2023/12/12 07:40:11;;;;;;;16.88;1.90;;;;;;;;;;5262887;28;20025;-85
2023/12/12 07:42:42;;;;;;;21.95;3.40;;;;;;;;;;5263524;28;20372;-85
2023/12/12 07:45:13;;;;;;;21.40;3.35;;;;;;;;;;5263571;28;20078;-85
2023/12/12 07:47:44;;;;;;;26.60;3.50;;;;;;;;;;5263079;28;20044;-86
2023/12/12 07:50:17;;;;;;;19.45;3.35;;;;;;;;;;5263877;28;20052;-85
2023/12/12 07:52:48;;;;;;;17.80;2.50;;;;;;;;;;5263419;28;20107;-85
2023/12/12 07:55:19;;;;;;;12.45;1.92;;;;;;;;;;5262713;28;20533;-85
2023/12/12 07:57:51;;;;;;;15.35;2.33;;;;;;;;;;5263267;28;20024;-85
2023/12/12 08:00:22;;;;;;;16.13;2.55;;;;;;;;;;5262282;28;20024;-86
2023/12/12 08:02:53;;;;;;;15.85;2.13;;;;;;;;;;5263571;28;20088;-85
2023/12/12 08:05:24;;;;;;;15.80;2.83;;;;;;;;;;5263057;28;20112;-85
2023/12/12 08:07:56;;;;;;;10.65;1.80;;;;;;;;;;5262659;28;20021;-86
2023/12/12 08:10:27;;;;;;;14.60;2.28;;;;;;;;;;5263363;28;20377;-85
2023/12/12 08:12:58;;;;;;;14.52;2.70;;;;;;;;;;5262612;28;20044;-86
2023/12/12 08:15:29;;;;;;;14.02;2.33;;;;;;;;;;5262317;28;20035;-86
2023/12/12 08:18:00;;;;;;;10.50;2.10;;;;;;;;;;5263134;28;20021;-85
2023/12/12 08:20:31;;;;;;;15.22;2.48;;;;;;;;;;5262903;28;20099;-85
2023/12/12 08:23:03;;;;;;;14.64;2.08;;;;;;;;;;5262570;28;20029;-86
2023/12/12 08:25:34;;;;;;;18.40;2.20;;;;;;;;;;5263180;28;20045;-86
2023/12/12 08:28:05;;;;;;;12.10;1.52;;;;;;;;;;5262786;28;20048;-85
2023/12/12 08:30:36;;;;;;;15.18;2.35;;;;;;;;;;5262180;28;20036;-85
2023/12/12 08:33:07;;;;;;;17.65;2.78;;;;;;;;;;5262502;28;20033;-85
2023/12/12 08:35:39;;;;;;;16.05;2.53;;;;;;;;;;5261916;28;20473;-85
2023/12/12 08:38:10;;;;;;;14.93;2.25;;;;;;;;;;5262525;28;20473;-86
2023/12/12 08:40:41;;;;;;;11.73;2.00;;;;;;;;;;5262680;28;20068;-85
2023/12/12 08:43:12;;;;;;;13.18;2.03;;;;;;;;;;5261726;28;20021;-85
2023/12/12 08:45:44;;;;;;;9.77;1.42;;;;;;;;;;5262743;28;20433;-86
2023/12/12 08:48:15;;;;;;;12.27;2.08;;;;;;;;;;5262907;28;20024;-85
2023/12/12 08:50:50;;;;;;;13.13;1.75;;;;;;;;;;5261768;28;20024;-85
2023/12/12 08:53:26;;;;;;;13.68;2.35;;;;;;;;;;5261990;28;20032;-85
2023/12/12 08:55:58;;;;;;;8.43;1.60;;;;;;;;;;5262738;28;20017;-85
2023/12/12 08:58:29;;;;;;;10.65;1.83;;;;;;;;;;5262673;28;20013;-85
2023/12/12 09:01:00;;;;;;;13.48;2.72;;;;;;;;;;5267358;28;20052;-85
2023/12/12 09:03:31;;;;;;;12.15;1.67;;;;;;;;;;5264260;28;20025;-86
2023/12/12 09:06:02;;;;;;;10.00;1.92;;;;;;;;;;5262386;28;20032;-86
2023/12/12 09:08:34;;;;;;;12.52;1.65;;;;;;;;;;5262233;28;20442;-86
2023/12/12 09:11:05;;;;;;;10.95;2.00;;;;;;;;;;5261322;28;20336;-86
2023/12/12 09:13:36;;;;;;;15.52;2.75;;;;;;;;;;5262143;28;20029;-85
2023/12/12 09:16:07;;;;;;;12.55;1.65;;;;;;;;;;5261964;28;20479;-86
2023/12/12 09:18:39;;;;;;;12.30;1.67;;;;;;;;;;5261119;28;20028;-86
2023/12/12 09:21:10;;;;;;;11.90;1.15;;;;;;;;;;5261891;28;20045;-85
2023/12/12 09:23:41;;;;;;;9.63;1.80;;;;;;;;;;5261457;28;20028;-86
2023/12/12 09:26:13;;;;;;;10.60;1.40;;;;;;;;;;5260892;28;20457;-86
2023/12/12 09:28:44;;;;;;;10.23;1.50;;;;;;;;;;5261817;28;20503;-86
2023/12/12 09:31:23;;;;;;;9.18;1.55;;;;;;;;;;5261518;28;20112;-86
2023/12/12 09:33:55;;;;;;;8.48;1.08;;;;;;;;;;5261748;28;20029;-86
2023/12/12 09:36:26;;;;;;;13.52;1.60;;;;;;;;;;5261141;28;20059;-86
2023/12/12 09:38:57;;;;;;;8.75;1.40;;;;;;;;;;5261011;28;20476;-86
2023/12/12 09:41:29;;;;;;;12.10;1.58;;;;;;;;;;5261696;28;20025;-85
2023/12/12 09:44:01;;;;;;;10.27;1.48;;;;;;;;;;5261127;28;20456;-85
2023/12/12 09:46:33;;;;;;;11.32;1.40;;;;;;;;;;5260857;28;20049;-85
2023/12/12 09:49:07;;;;;;;9.27;1.30;;;;;;;;;;5261324;28;20047;-85
2023/12/12 09:51:40;;;;;;;10.65;1.30;;;;;;;;;;5261106;28;20573;-86
2023/12/12 09:54:11;;;;;;;10.95;2.05;;;;;;;;;;5260106;28;20411;-85
2023/12/12 09:56:42;;;;;;;9.85;1.45;;;;;;;;;;5261311;28;20035;-86
2023/12/12 09:59:14;;;;;;;11.88;1.50;;;;;;;;;;5261480;28;20024;-85
2023/12/12 10:01:47;;;;;;;8.70;1.30;;;;;;;;;;5260425;28;20033;-85
2023/12/12 10:04:18;;;;;;;7.82;1.45;;;;;;;;;;5261002;28;20021;-86
2023/12/12 10:06:52;;;;;;;7.22;1.27;;;;;;;;;;5260254;28;20345;-86
2023/12/12 10:09:24;;;;;;;7.97;1.15;;;;;;;;;;5260739;28;20009;-85
2023/12/12 10:11:55;;;;;;;7.07;1.05;;;;;;;;;;5261731;28;20033;-85
2023/12/12 10:14:36;;;;;;;6.22;0.98;;;;;;;;;;5260095;28;20092;-85
2023/12/12 10:17:10;;;;;;;10.30;1.30;;;;;;;;;;5261194;28;20032;-86
2023/12/12 10:19:41;;;;;;;10.30;1.80;;;;;;;;;;5260996;28;20100;-85
2023/12/12 10:22:13;;;;;;;7.97;0.80;;;;;;;;;;5260247;28;20099;-85
2023/12/12 10:24:44;;;;;;;9.07;1.30;;;;;;;;;;5260944;28;20053;-85
2023/12/12 10:27:19;;;;;;;6.30;0.70;;;;;;;;;;5260759;28;20040;-85
2023/12/12 10:29:50;;;;;;;7.13;0.77;;;;;;;;;;5260023;28;20021;-85
2023/12/12 10:32:22;;;;;;;4.78;0.70;;;;;;;;;;5260203;28;20039;-85
2023/12/12 10:34:53;;;;;;;5.75;0.93;;;;;;;;;;5260333;28;20427;-85
2023/12/12 10:37:25;;;;;;;8.82;0.90;;;;;;;;;;5264819;28;20051;-86
2023/12/12 10:40:10;;;;;;;5.00;0.60;;;;;;;;;;5265088;28;20021;-84
2023/12/12 10:42:41;;;;;;;4.63;0.80;;;;;;;;;;5264402;28;20048;-85
2023/12/12 10:45:13;;;;;;;3.67;0.50;;;;;;;;;;5264837;28;20051;-86
2023/12/12 10:47:45;;;;;;;4.05;0.60;;;;;;;;;;5264947;28;20396;-85
2023/12/12 10:50:17;;;;;;;6.53;0.82;;;;;;;;;;5264497;28;20097;-86
2023/12/12 10:52:49;;;;;;;5.97;0.93;;;;;;;;;;5270190;28;20029;-85
2023/12/12 10:55:21;;;;;;;5.20;0.50;;;;;;;;;;5266495;28;20017;-85
2023/12/12 10:57:55;;;;;;;3.58;0.60;;;;;;;;;;5264420;28;20476;-84
2023/12/12 11:00:27;;;;;;;4.47;0.60;;;;;;;;;;5264109;28;20482;-86
2023/12/12 11:02:58;;;;;;;5.53;0.77;;;;;;;;;;5263540;28;20021;-85
2023/12/12 11:05:30;;;;;;;3.88;0.68;;;;;;;;;;5264723;28;20021;-86
2023/12/12 11:08:03;;;;;;;5.43;0.90;;;;;;;;;;5264469;28;20013;-85
2023/12/12 11:10:34;;;;;;;3.20;0.50;;;;;;;;;;5263850;28;20457;-86
2023/12/12 11:13:06;;;;;;;4.13;0.50;;;;;;;;;;5264224;28;20037;-85
2023/12/12 11:15:38;;;;;;;3.97;0.43;;;;;;;;;;5263873;28;20013;-85
2023/12/12 11:18:09;;;;;;;2.58;0.40;;;;;;;;;;5264058;28;20016;-85
2023/12/12 11:20:41;;;;;;;3.70;0.50;;;;;;;;;;5264033;28;20108;-85
2023/12/12 11:23:42;;;;;;;4.22;0.70;;;;;;;;;;5264178;28;20021;-85
2023/12/12 11:26:16;;;;;;;5.03;0.88;;;;;;;;;;5257733;28;20508;-86
2023/12/12 11:28:49;;;;;;;4.43;1.10;;;;;;;;;;5263982;28;20036;-86
2023/12/12 11:31:33;;;;;;;5.32;0.73;;;;;;;;;;5263152;28;20040;-85
2023/12/12 11:34:08;;;;;;;5.75;0.50;;;;;;;;;;5263876;28;20021;-86
2023/12/12 11:36:49;;;;;;;2.83;0.60;;;;;;;;;;5263993;28;20017;-85
2023/12/12 11:39:26;;;;;;;5.72;0.70;;;;;;;;;;5263057;28;20429;-85
2023/12/12 11:41:57;;;;;;;4.38;0.55;;;;;;;;;;5264040;28;20017;-85
2023/12/12 11:44:42;;;;;;;4.70;0.50;;;;;;;;;;5263443;28;20062;-85
2023/12/12 11:47:14;;;;;;;5.10;0.60;;;;;;;;;;5261944;28;20100;-85
2023/12/12 11:49:45;;;;;;;4.72;0.70;;;;;;;;;;5264268;28;20375;-85
2023/12/12 11:52:40;;;;;;;3.28;0.60;;;;;;;;;;5263033;28;20025;-85
2023/12/12 11:55:18;;;;;;;6.57;0.60;;;;;;;;;;5260513;28;20029;-86
2023/12/12 11:57:50;;;;;;;5.45;0.70;;;;;;;;;;5263535;28;20021;-85
2023/12/12 12:00:22;;;;;;;3.80;0.50;;;;;;;;;;5262452;28;20491;-85
2023/12/12 12:02:53;;;;;;;4.95;0.60;;;;;;;;;;5263774;28;20457;-86
2023/12/12 12:05:24;;;;;;;4.53;0.60;;;;;;;;;;5262980;28;20112;-84
2023/12/12 12:07:56;;;;;;;3.42;0.50;;;;;;;;;;5263087;28;20040;-85
2023/12/12 12:10:27;;;;;;;4.35;0.50;;;;;;;;;;5263231;28;20020;-86
2023/12/12 12:12:59;;;;;;;4.25;0.47;;;;;;;;;;5263303;28;20548;-85
2023/12/12 12:15:30;;;;;;;3.67;0.73;;;;;;;;;;5262774;28;20017;-86
2023/12/12 12:18:01;;;;;;;5.32;0.60;;;;;;;;;;5263259;28;20021;-85
2023/12/12 12:20:44;;;;;;;3.55;0.50;;;;;;;;;;5262933;28;20087;-85
2023/12/12 12:23:15;;;;;;;3.60;0.50;;;;;;;;;;5263515;28;20032;-85
2023/12/12 12:25:46;;;;;;;5.05;0.60;;;;;;;;;;5262809;28;20094;-86
2023/12/12 12:28:17;;;;;;;3.83;0.60;;;;;;;;;;5262196;28;20029;-85
2023/12/12 12:30:48;;;;;;;3.92;0.63;;;;;;;;;;5262764;28;20024;-85
2023/12/12 12:33:20;;;;;;;2.42;0.50;;;;;;;;;;5262792;28;20460;-85
2023/12/12 12:35:51;;;;;;;3.67;0.90;;;;;;;;;;5262230;28;20072;-86
2023/12/12 12:38:26;;;;;;;4.47;0.50;;;;;;;;;;5262402;28;20056;-85
2023/12/12 12:40:58;;;;;;;3.53;0.40;;;;;;;;;;5263019;28;20100;-85
2023/12/12 12:43:29;;;;;;;3.33;0.40;;;;;;;;;;5263208;28;20238;-85
2023/12/12 12:46:06;;;;;;;4.18;0.70;;;;;;;;;;5267547;28;20016;-85
2023/12/12 12:48:37;;;;;;;2.67;0.43;;;;;;;;;;5262214;28;20389;-86
2023/12/12 12:51:08;;;;;;;2.85;0.50;;;;;;;;;;5262487;28;20029;-86
2023/12/12 12:53:40;;;;;;;2.20;0.40;;;;;;;;;;5262849;28;20500;-85
2023/12/12 12:56:11;;;;;;;2.55;0.50;;;;;;;;;;5261657;28;20065;-85
2023/12/12 12:58:43;;;;;;;2.83;0.82;;;;;;;;;;5262066;28;20021;-85
2023/12/12 13:01:14;;;;;;;1.90;0.50;;;;;;;;;;5262348;28;20021;-85
2023/12/12 13:03:45;;;;;;;2.70;0.50;;;;;;;;;;5261783;28;20020;-85
2023/12/12 13:06:17;;;;;;;2.90;0.40;;;;;;;;;;5262229;28;20095;-85
2023/12/12 13:08:48;;;;;;;2.03;0.40;;;;;;;;;;5262331;28;20021;-85
2023/12/12 13:11:20;;;;;;;3.08;0.57;;;;;;;;;;5261542;28;20040;-85
2023/12/12 13:13:51;;;;;;;2.03;0.40;;;;;;;;;;5262065;28;20099;-85
2023/12/12 13:16:22;;;;;;;2.08;0.40;;;;;;;;;;5261572;28;20024;-85
2023/12/12 13:18:54;;;;;;;1.70;0.60;;;;;;;;;;5261394;28;20021;-84
2023/12/12 13:21:27;;;;;;;3.13;0.57;;;;;;;;;;5261911;28;20096;-85
2023/12/12 13:23:58;;;;;;;1.58;0.40;;;;;;;;;;5260481;28;20049;-85
2023/12/12 13:26:30;;;;;;;4.00;0.50;;;;;;;;;;5261633;28;20025;-86
2023/12/12 13:29:01;;;;;;;2.33;0.50;;;;;;;;;;5261579;28;20024;-85
2023/12/12 13:31:32;;;;;;;2.10;1.02;;;;;;;;;;5260915;28;20472;-85
2023/12/12 13:34:04;;;;;;;1.98;0.40;;;;;;;;;;5261558;28;20099;-85
2023/12/12 13:36:36;;;;;;;1.60;0.50;;;;;;;;;;5261627;28;20028;-77
2023/12/12 13:39:12;;;;;;;1.55;0.40;;;;;;;;;;5260931;28;20020;-88
2023/12/12 13:41:43;;;;;;;2.00;0.50;;;;;;;;;;5262147;28;20024;-83
2023/12/12 13:44:16;;;;;;;2.45;0.40;;;;;;;;;;5261557;28;20039;-83
2023/12/12 13:46:48;;;;;;;2.05;0.40;;;;;;;;;;5260584;28;20017;-83
2023/12/12 13:49:19;;;;;;;1.20;0.63;;;;;;;;;;5260935;28;20100;-85
2023/12/12 13:51:51;;;;;;;2.78;0.73;;;;;;;;;;5260074;28;20055;-85
2023/12/12 13:54:22;;;;;;;5.25;1.02;;;;;;;;;;5260533;28;20109;-83
2023/12/12 13:56:53;;;;;;;2.67;0.60;;;;;;;;;;5261564;28;20024;-82
2023/12/12 13:59:24;;;;;;;1.88;0.50;;;;;;;;;;5260073;28;20033;-82
2023/12/12 14:01:55;;;;;;;1.00;0.50;;;;;;;;;;5261346;28;20020;-83
2023/12/12 14:04:27;;;;;;;2.92;0.80;;;;;;;;;;5260337;28;20017;-81
2023/12/12 14:06:58;;;;;;;2.08;0.60;;;;;;;;;;5256128;28;20114;-81
2023/12/12 14:09:29;;;;;;;2.97;0.60;;;;;;;;;;5255222;28;20021;-81
2023/12/12 14:12:01;;;;;;;2.72;0.80;;;;;;;;;;5258231;28;20025;-82
2023/12/12 14:14:32;;;;;;;3.45;0.70;;;;;;;;;;5258767;28;20468;-81
2023/12/12 14:17:04;;;;;;;2.13;0.70;;;;;;;;;;5259222;28;20025;-82
2023/12/12 14:19:35;;;;;;;1.98;0.70;;;;;;;;;;5258485;28;20392;-82
2023/12/12 14:22:06;;;;;;;2.80;0.80;;;;;;;;;;5259332;28;20025;-82
2023/12/12 14:24:39;;;;;;;1.85;0.60;;;;;;;;;;5259630;28;20178;-84
2023/12/12 14:27:10;;;;;;;1.80;0.60;;;;;;;;;;5258310;28;20080;-82
2023/12/12 14:29:42;;;;;;;1.63;0.60;;;;;;;;;;5259708;28;20059;-82
2023/12/12 14:32:14;;;;;;;3.58;0.77;;;;;;;;;;5259282;28;20025;-83
2023/12/12 14:34:45;;;;;;;3.03;0.70;;;;;;;;;;5257911;28;20380;-83
2023/12/12 14:37:16;;;;;;;2.60;0.70;;;;;;;;;;5264688;28;20039;-82
2023/12/12 14:39:47;;;;;;;4.85;1.05;;;;;;;;;;5281548;28;20016;-81
2023/12/12 14:42:19;;;;;;;3.13;1.33;;;;;;;;;;5280401;28;20029;-79
2023/12/12 14:44:50;;;;;;;3.50;1.30;;;;;;;;;;5281373;28;20480;-82
2023/12/12 14:47:22;;;;;;;2.15;1.42;;;;;;;;;;5280009;28;20519;-83
2023/12/12 14:49:53;;;;;;;2.22;1.40;;;;;;;;;;5280758;28;20463;-84
2023/12/12 14:52:24;;;;;;;3.70;1.10;;;;;;;;;;5281093;28;20493;-82
2023/12/12 14:54:55;;;;;;;2.58;1.35;;;;;;;;;;5281540;28;20025;-82
2023/12/12 14:57:26;;;;;;;2.13;0.88;;;;;;;;;;5280660;28;20491;-86
2023/12/12 14:59:58;;;;;;;1.58;0.80;;;;;;;;;;5281198;28;20025;-83
2023/12/12 15:02:29;;;;;;;5.07;0.90;;;;;;;;;;5280429;28;20025;-83